sensor_id;sensor_type;location;lat;lon;timestamp;temperature;humidity
38941;DHT22;43236;47.208;7.518;2023-04-24T00:04:09;11.20;99.90
38941;DHT22;43236;47.208;7.518;2023-04-24T00:06:59;11.30;99.90
38941;DHT22;43236;47.208;7.518;2023-04-24T00:09:47;11.10;99.90
38941;DHT22;43236;47.208;7.518;2023-04-24T00:12:34;11.20;99.90
38941;DHT22;43236;47.208;7.518;2023-04-24T00:15:21;11.10;99.90
38941;DHT22;43236;47.208;7.518;2023-04-24T00:18:08;11.10;99.90
38941;DHT22;43236;47.208;7.518;2023-04-24T00:20:56;11.30;99.90
38941;DHT22;43236;47.208;7.518;2023-04-24T00:23:43;11.30;99.90
38941;DHT22;43236;47.208;7.518;2023-04-24T00:26:30;11.40;99.90
38941;DHT22;43236;47.208;7.518;2023-04-24T00:29:17;11.20;99.90
38941;DHT22;43236;47.208;7.518;2023-04-24T00:32:04;11.30;99.90
38941;DHT22;43236;47.208;7.518;2023-04-24T00:34:51;11.30;99.90
38941;DHT22;43236;47.208;7.518;2023-04-24T00:37:39;11.60;99.90
38941;DHT22;43236;47.208;7.518;2023-04-24T00:40:26;11.40;99.90
38941;DHT22;43236;47.208;7.518;2023-04-24T00:43:13;11.40;99.90
38941;DHT22;43236;47.208;7.518;2023-04-24T00:46:00;11.20;99.90
38941;DHT22;43236;47.208;7.518;2023-04-24T00:51:34;11.00;99.90
38941;DHT22;43236;47.208;7.518;2023-04-24T00:54:23;11.60;99.90
38941;DHT22;43236;47.208;7.518;2023-04-24T00:57:10;11.10;99.90
38941;DHT22;43236;47.208;7.518;2023-04-24T00:59:57;11.30;99.90
38941;DHT22;43236;47.208;7.518;2023-04-24T01:02:44;11.20;99.90
38941;DHT22;43236;47.208;7.518;2023-04-24T01:05:32;11.50;99.90
38941;DHT22;43236;47.208;7.518;2023-04-24T01:08:19;11.30;99.90
38941;DHT22;43236;47.208;7.518;2023-04-24T01:11:08;11.20;99.90
38941;DHT22;43236;47.208;7.518;2023-04-24T01:13:55;11.40;99.90
38941;DHT22;43236;47.208;7.518;2023-04-24T01:16:43;11.30;99.90
38941;DHT22;43236;47.208;7.518;2023-04-24T01:19:30;11.60;99.90
38941;DHT22;43236;47.208;7.518;2023-04-24T01:25:05;11.20;99.90
38941;DHT22;43236;47.208;7.518;2023-04-24T01:27:53;11.10;99.90
38941;DHT22;43236;47.208;7.518;2023-04-24T01:30:40;11.20;99.90
38941;DHT22;43236;47.208;7.518;2023-04-24T01:33:27;11.10;99.90
38941;DHT22;43236;47.208;7.518;2023-04-24T01:36:14;11.10;99.90
38941;DHT22;43236;47.208;7.518;2023-04-24T01:39:02;11.20;99.90
38941;DHT22;43236;47.208;7.518;2023-04-24T01:44:38;11.20;99.90
38941;DHT22;43236;47.208;7.518;2023-04-24T01:47:26;11.20;99.90
38941;DHT22;43236;47.208;7.518;2023-04-24T01:50:13;11.10;99.90
38941;DHT22;43236;47.208;7.518;2023-04-24T01:55:47;11.40;99.90
38941;DHT22;43236;47.208;7.518;2023-04-24T01:58:34;11.50;99.90
38941;DHT22;43236;47.208;7.518;2023-04-24T02:01:23;11.40;99.90
38941;DHT22;43236;47.208;7.518;2023-04-24T02:04:10;11.30;99.90
38941;DHT22;43236;47.208;7.518;2023-04-24T02:06:56;11.30;99.90
38941;DHT22;43236;47.208;7.518;2023-04-24T02:09:43;11.10;99.90
38941;DHT22;43236;47.208;7.518;2023-04-24T02:12:30;11.10;99.90
38941;DHT22;43236;47.208;7.518;2023-04-24T02:15:17;11.20;99.90
38941;DHT22;43236;47.208;7.518;2023-04-24T02:18:05;11.30;99.90
38941;DHT22;43236;47.208;7.518;2023-04-24T02:23:40;11.30;99.90
38941;DHT22;43236;47.208;7.518;2023-04-24T02:26:27;11.10;99.90
38941;DHT22;43236;47.208;7.518;2023-04-24T02:29:14;11.00;99.90
38941;DHT22;43236;47.208;7.518;2023-04-24T02:32:01;11.30;99.90
38941;DHT22;43236;47.208;7.518;2023-04-24T02:37:36;11.10;99.90
38941;DHT22;43236;47.208;7.518;2023-04-24T02:40:23;11.30;99.90
38941;DHT22;43236;47.208;7.518;2023-04-24T02:43:10;11.30;99.90
38941;DHT22;43236;47.208;7.518;2023-04-24T02:45:57;11.30;99.90
38941;DHT22;43236;47.208;7.518;2023-04-24T02:48:44;11.30;99.90
38941;DHT22;43236;47.208;7.518;2023-04-24T02:51:31;11.20;99.90
38941;DHT22;43236;47.208;7.518;2023-04-24T02:54:19;11.20;99.90
38941;DHT22;43236;47.208;7.518;2023-04-24T02:59:53;11.20;99.90
38941;DHT22;43236;47.208;7.518;2023-04-24T03:05:27;11.30;99.90
38941;DHT22;43236;47.208;7.518;2023-04-24T03:08:16;11.40;99.90
38941;DHT22;43236;47.208;7.518;2023-04-24T03:11:04;11.20;99.90
38941;DHT22;43236;47.208;7.518;2023-04-24T03:13:51;11.20;99.90
38941;DHT22;43236;47.208;7.518;2023-04-24T03:16:38;11.20;99.90
38941;DHT22;43236;47.208;7.518;2023-04-24T03:19:25;11.40;99.90
38941;DHT22;43236;47.208;7.518;2023-04-24T03:22:12;11.30;99.90
38941;DHT22;43236;47.208;7.518;2023-04-24T03:24:59;11.30;99.90
38941;DHT22;43236;47.208;7.518;2023-04-24T03:27:47;11.40;99.90
38941;DHT22;43236;47.208;7.518;2023-04-24T03:30:34;11.10;99.90
38941;DHT22;43236;47.208;7.518;2023-04-24T03:36:08;11.20;99.90
38941;DHT22;43236;47.208;7.518;2023-04-24T03:38:55;11.10;99.90
38941;DHT22;43236;47.208;7.518;2023-04-24T03:41:42;11.40;99.90
38941;DHT22;43236;47.208;7.518;2023-04-24T03:44:30;11.10;99.90
38941;DHT22;43236;47.208;7.518;2023-04-24T03:47:17;11.20;99.90
38941;DHT22;43236;47.208;7.518;2023-04-24T03:50:04;11.20;99.90
38941;DHT22;43236;47.208;7.518;2023-04-24T03:58:25;11.10;99.90
38941;DHT22;43236;47.208;7.518;2023-04-24T04:01:14;11.00;99.90
38941;DHT22;43236;47.208;7.518;2023-04-24T04:04:01;11.00;99.90
38941;DHT22;43236;47.208;7.518;2023-04-24T04:06:48;11.10;99.90
38941;DHT22;43236;47.208;7.518;2023-04-24T04:09:35;11.00;99.90
38941;DHT22;43236;47.208;7.518;2023-04-24T04:15:09;11.10;99.90
38941;DHT22;43236;47.208;7.518;2023-04-24T04:17:58;11.50;99.90
38941;DHT22;43236;47.208;7.518;2023-04-24T04:20:44;11.50;99.90
38941;DHT22;43236;47.208;7.518;2023-04-24T04:23:31;10.90;99.90
38941;DHT22;43236;47.208;7.518;2023-04-24T04:26:18;10.80;99.90
38941;DHT22;43236;47.208;7.518;2023-04-24T04:29:06;10.90;99.90
38941;DHT22;43236;47.208;7.518;2023-04-24T04:31:53;10.80;99.90
38941;DHT22;43236;47.208;7.518;2023-04-24T04:34:42;10.80;99.90
38941;DHT22;43236;47.208;7.518;2023-04-24T04:37:31;11.20;99.90
38941;DHT22;43236;47.208;7.518;2023-04-24T04:40:18;10.80;99.90
38941;DHT22;43236;47.208;7.518;2023-04-24T04:43:05;10.80;99.90
38941;DHT22;43236;47.208;7.518;2023-04-24T04:45:52;10.80;99.90
38941;DHT22;43236;47.208;7.518;2023-04-24T04:48:40;10.80;99.90
38941;DHT22;43236;47.208;7.518;2023-04-24T04:51:28;10.90;99.90
38941;DHT22;43236;47.208;7.518;2023-04-24T04:57:02;11.10;99.90
38941;DHT22;43236;47.208;7.518;2023-04-24T04:59:49;10.90;99.90
38941;DHT22;43236;47.208;7.518;2023-04-24T05:02:36;11.10;99.90
38941;DHT22;43236;47.208;7.518;2023-04-24T05:05:23;10.90;99.90
38941;DHT22;43236;47.208;7.518;2023-04-24T05:08:11;11.00;99.90
38941;DHT22;43236;47.208;7.518;2023-04-24T05:10:58;11.10;99.90
38941;DHT22;43236;47.208;7.518;2023-04-24T05:13:45;11.60;99.90
38941;DHT22;43236;47.208;7.518;2023-04-24T05:16:32;11.00;99.90
38941;DHT22;43236;47.208;7.518;2023-04-24T05:19:19;11.10;99.90
38941;DHT22;43236;47.208;7.518;2023-04-24T05:22:06;11.10;99.90
38941;DHT22;43236;47.208;7.518;2023-04-24T05:24:54;11.30;99.90
38941;DHT22;43236;47.208;7.518;2023-04-24T05:27:41;11.30;99.90
38941;DHT22;43236;47.208;7.518;2023-04-24T05:30:28;11.40;99.90
38941;DHT22;43236;47.208;7.518;2023-04-24T05:33:15;11.20;99.90
38941;DHT22;43236;47.208;7.518;2023-04-24T05:36:02;11.30;99.90
38941;DHT22;43236;47.208;7.518;2023-04-24T05:38:49;11.50;99.90
38941;DHT22;43236;47.208;7.518;2023-04-24T05:41:37;11.30;99.90
38941;DHT22;43236;47.208;7.518;2023-04-24T05:47:11;11.60;99.90
38941;DHT22;43236;47.208;7.518;2023-04-24T05:49:58;11.40;99.90
38941;DHT22;43236;47.208;7.518;2023-04-24T05:52:45;11.60;99.90
38941;DHT22;43236;47.208;7.518;2023-04-24T05:55:32;11.50;99.90
38941;DHT22;43236;47.208;7.518;2023-04-24T05:58:20;11.50;99.90
38941;DHT22;43236;47.208;7.518;2023-04-24T06:01:07;11.50;99.90
38941;DHT22;43236;47.208;7.518;2023-04-24T06:03:55;11.50;99.90
38941;DHT22;43236;47.208;7.518;2023-04-24T06:06:41;11.50;99.90
38941;DHT22;43236;47.208;7.518;2023-04-24T06:09:28;11.50;99.90
38941;DHT22;43236;47.208;7.518;2023-04-24T06:12:15;11.40;99.90
38941;DHT22;43236;47.208;7.518;2023-04-24T06:15:04;11.60;99.90
38941;DHT22;43236;47.208;7.518;2023-04-24T06:17:51;11.50;99.90
38941;DHT22;43236;47.208;7.518;2023-04-24T06:20:38;11.50;99.90
38941;DHT22;43236;47.208;7.518;2023-04-24T06:23:25;11.50;99.90
38941;DHT22;43236;47.208;7.518;2023-04-24T06:26:12;11.30;99.90
38941;DHT22;43236;47.208;7.518;2023-04-24T06:29:00;11.40;99.90
38941;DHT22;43236;47.208;7.518;2023-04-24T06:31:48;11.20;99.90
38941;DHT22;43236;47.208;7.518;2023-04-24T06:34:35;11.40;99.90
38941;DHT22;43236;47.208;7.518;2023-04-24T06:37:22;11.40;99.90
38941;DHT22;43236;47.208;7.518;2023-04-24T06:40:09;11.60;99.90
38941;DHT22;43236;47.208;7.518;2023-04-24T06:42:56;11.80;99.90
38941;DHT22;43236;47.208;7.518;2023-04-24T06:45:45;11.90;99.90
38941;DHT22;43236;47.208;7.518;2023-04-24T06:48:34;11.80;99.90
38941;DHT22;43236;47.208;7.518;2023-04-24T06:51:21;12.00;99.90
38941;DHT22;43236;47.208;7.518;2023-04-24T06:54:08;12.10;99.90
38941;DHT22;43236;47.208;7.518;2023-04-24T06:56:55;11.80;99.90
38941;DHT22;43236;47.208;7.518;2023-04-24T06:59:42;12.60;99.90
38941;DHT22;43236;47.208;7.518;2023-04-24T07:02:29;11.90;99.90
38941;DHT22;43236;47.208;7.518;2023-04-24T07:05:18;11.80;99.90
38941;DHT22;43236;47.208;7.518;2023-04-24T07:08:06;11.60;99.90
38941;DHT22;43236;47.208;7.518;2023-04-24T07:10:54;11.90;99.90
38941;DHT22;43236;47.208;7.518;2023-04-24T07:13:41;11.80;99.90
38941;DHT22;43236;47.208;7.518;2023-04-24T07:16:29;11.90;99.90
38941;DHT22;43236;47.208;7.518;2023-04-24T07:19:16;12.00;99.70
38941;DHT22;43236;47.208;7.518;2023-04-24T07:22:04;11.60;99.20
38941;DHT22;43236;47.208;7.518;2023-04-24T07:24:51;11.80;96.70
38941;DHT22;43236;47.208;7.518;2023-04-24T07:27:38;11.80;97.50
38941;DHT22;43236;47.208;7.518;2023-04-24T07:30:25;11.90;97.80
38941;DHT22;43236;47.208;7.518;2023-04-24T07:33:14;12.00;97.50
38941;DHT22;43236;47.208;7.518;2023-04-24T07:36:01;12.00;97.60
38941;DHT22;43236;47.208;7.518;2023-04-24T07:38:49;12.20;95.60
38941;DHT22;43236;47.208;7.518;2023-04-24T07:41:36;12.20;95.50
38941;DHT22;43236;47.208;7.518;2023-04-24T07:44:23;12.20;95.30
38941;DHT22;43236;47.208;7.518;2023-04-24T07:47:10;12.30;94.50
38941;DHT22;43236;47.208;7.518;2023-04-24T07:49:57;13.00;93.80
38941;DHT22;43236;47.208;7.518;2023-04-24T07:52:44;13.50;93.40
38941;DHT22;43236;47.208;7.518;2023-04-24T07:55:32;12.40;92.40
38941;DHT22;43236;47.208;7.518;2023-04-24T07:58:19;12.40;92.40
38941;DHT22;43236;47.208;7.518;2023-04-24T08:01:06;12.40;92.20
38941;DHT22;43236;47.208;7.518;2023-04-24T08:03:53;12.20;92.70
38941;DHT22;43236;47.208;7.518;2023-04-24T08:06:40;12.10;93.80
38941;DHT22;43236;47.208;7.518;2023-04-24T08:09:27;12.20;93.80
38941;DHT22;43236;47.208;7.518;2023-04-24T08:12:15;12.00;94.00
38941;DHT22;43236;47.208;7.518;2023-04-24T08:15:02;11.90;95.00
38941;DHT22;43236;47.208;7.518;2023-04-24T08:17:49;11.80;95.10
38941;DHT22;43236;47.208;7.518;2023-04-24T08:20:36;11.90;95.90
38941;DHT22;43236;47.208;7.518;2023-04-24T08:23:23;12.10;95.80
38941;DHT22;43236;47.208;7.518;2023-04-24T08:26:10;11.90;95.60
38941;DHT22;43236;47.208;7.518;2023-04-24T08:28:58;13.10;95.70
38941;DHT22;43236;47.208;7.518;2023-04-24T08:31:45;13.10;94.40
38941;DHT22;43236;47.208;7.518;2023-04-24T08:34:32;13.20;94.00
38941;DHT22;43236;47.208;7.518;2023-04-24T08:37:19;12.40;93.10
38941;DHT22;43236;47.208;7.518;2023-04-24T08:40:10;12.70;92.30
38941;DHT22;43236;47.208;7.518;2023-04-24T08:42:58;12.50;91.40
38941;DHT22;43236;47.208;7.518;2023-04-24T08:45:47;13.70;92.30
38941;DHT22;43236;47.208;7.518;2023-04-24T08:48:34;12.80;92.00
38941;DHT22;43236;47.208;7.518;2023-04-24T08:54:08;13.20;91.70
38941;DHT22;43236;47.208;7.518;2023-04-24T08:56:56;12.20;91.30
38941;DHT22;43236;47.208;7.518;2023-04-24T08:59:46;12.50;91.50
38941;DHT22;43236;47.208;7.518;2023-04-24T09:02:34;12.50;91.70
38941;DHT22;43236;47.208;7.518;2023-04-24T09:05:21;12.50;91.70
38941;DHT22;43236;47.208;7.518;2023-04-24T09:08:09;12.70;92.10
38941;DHT22;43236;47.208;7.518;2023-04-24T09:10:57;12.60;91.60
38941;DHT22;43236;47.208;7.518;2023-04-24T09:13:47;13.00;92.20
38941;DHT22;43236;47.208;7.518;2023-04-24T09:16:34;14.10;91.90
38941;DHT22;43236;47.208;7.518;2023-04-24T09:19:23;12.70;91.70
38941;DHT22;43236;47.208;7.518;2023-04-24T09:22:10;14.50;90.40
38941;DHT22;43236;47.208;7.518;2023-04-24T09:25:01;13.10;90.30
38941;DHT22;43236;47.208;7.518;2023-04-24T09:27:49;13.20;88.90
38941;DHT22;43236;47.208;7.518;2023-04-24T09:30:36;14.90;88.00
38941;DHT22;43236;47.208;7.518;2023-04-24T09:33:23;13.40;86.30
38941;DHT22;43236;47.208;7.518;2023-04-24T09:36:11;15.10;86.60
38941;DHT22;43236;47.208;7.518;2023-04-24T09:38:58;14.40;86.00
38941;DHT22;43236;47.208;7.518;2023-04-24T09:41:46;14.90;85.00
38941;DHT22;43236;47.208;7.518;2023-04-24T09:44:33;14.40;84.20
38941;DHT22;43236;47.208;7.518;2023-04-24T09:47:21;13.00;82.50
38941;DHT22;43236;47.208;7.518;2023-04-24T09:50:11;14.20;84.00
38941;DHT22;43236;47.208;7.518;2023-04-24T09:53:01;14.90;85.30
38941;DHT22;43236;47.208;7.518;2023-04-24T09:55:48;14.50;85.70
38941;DHT22;43236;47.208;7.518;2023-04-24T09:58:36;13.00;86.20
38941;DHT22;43236;47.208;7.518;2023-04-24T10:01:29;15.60;89.10
38941;DHT22;43236;47.208;7.518;2023-04-24T10:04:16;13.40;85.90
38941;DHT22;43236;47.208;7.518;2023-04-24T10:07:04;16.20;88.50
38941;DHT22;43236;47.208;7.518;2023-04-24T10:09:53;16.00;89.70
38941;DHT22;43236;47.208;7.518;2023-04-24T10:15:27;13.60;88.60
38941;DHT22;43236;47.208;7.518;2023-04-24T10:18:14;14.90;88.40
38941;DHT22;43236;47.208;7.518;2023-04-24T10:23:49;13.70;83.20
38941;DHT22;43236;47.208;7.518;2023-04-24T10:26:38;16.20;85.10
38941;DHT22;43236;47.208;7.518;2023-04-24T10:32:14;16.80;85.00
38941;DHT22;43236;47.208;7.518;2023-04-24T10:35:01;16.70;87.80
38941;DHT22;43236;47.208;7.518;2023-04-24T10:40:35;16.80;89.60
38941;DHT22;43236;47.208;7.518;2023-04-24T10:43:23;17.00;88.30
38941;DHT22;43236;47.208;7.518;2023-04-24T10:46:10;15.90;82.70
38941;DHT22;43236;47.208;7.518;2023-04-24T10:49:03;15.80;82.50
38941;DHT22;43236;47.208;7.518;2023-04-24T10:51:52;16.60;82.40
38941;DHT22;43236;47.208;7.518;2023-04-24T10:54:44;17.50;83.70
38941;DHT22;43236;47.208;7.518;2023-04-24T10:57:31;16.40;82.10
38941;DHT22;43236;47.208;7.518;2023-04-24T11:00:20;16.70;82.10
38941;DHT22;43236;47.208;7.518;2023-04-24T11:03:12;18.20;85.40
38941;DHT22;43236;47.208;7.518;2023-04-24T11:06:08;17.30;83.80
38941;DHT22;43236;47.208;7.518;2023-04-24T11:08:59;17.70;83.90
38941;DHT22;43236;47.208;7.518;2023-04-24T11:11:48;17.40;83.50
38941;DHT22;43236;47.208;7.518;2023-04-24T11:20:29;18.50;84.20
38941;DHT22;43236;47.208;7.518;2023-04-24T11:23:16;17.70;82.80
38941;DHT22;43236;47.208;7.518;2023-04-24T11:26:10;16.00;80.00
38941;DHT22;43236;47.208;7.518;2023-04-24T11:29:05;19.40;82.60
38941;DHT22;43236;47.208;7.518;2023-04-24T11:31:53;17.20;80.00
38941;DHT22;43236;47.208;7.518;2023-04-24T11:34:40;17.80;81.50
38941;DHT22;43236;47.208;7.518;2023-04-24T11:37:28;17.90;77.70
38941;DHT22;43236;47.208;7.518;2023-04-24T11:40:16;17.90;77.00
38941;DHT22;43236;47.208;7.518;2023-04-24T11:43:06;19.30;79.70
38941;DHT22;43236;47.208;7.518;2023-04-24T11:45:53;17.20;78.30
38941;DHT22;43236;47.208;7.518;2023-04-24T11:48:44;19.00;80.60
38941;DHT22;43236;47.208;7.518;2023-04-24T11:51:31;19.70;81.20
38941;DHT22;43236;47.208;7.518;2023-04-24T11:54:19;19.70;80.80
38941;DHT22;43236;47.208;7.518;2023-04-24T11:57:06;19.80;80.80
38941;DHT22;43236;47.208;7.518;2023-04-24T11:59:53;18.10;77.10
38941;DHT22;43236;47.208;7.518;2023-04-24T12:02:40;17.90;76.90
38941;DHT22;43236;47.208;7.518;2023-04-24T12:05:27;17.50;77.10
38941;DHT22;43236;47.208;7.518;2023-04-24T12:08:26;17.50;77.40
38941;DHT22;43236;47.208;7.518;2023-04-24T12:11:15;17.80;78.20
38941;DHT22;43236;47.208;7.518;2023-04-24T12:14:09;16.60;80.00
38941;DHT22;43236;47.208;7.518;2023-04-24T12:16:56;19.70;81.50
38941;DHT22;43236;47.208;7.518;2023-04-24T12:19:47;18.00;79.30
38941;DHT22;43236;47.208;7.518;2023-04-24T12:22:43;18.20;80.20
38941;DHT22;43236;47.208;7.518;2023-04-24T12:25:31;17.80;79.70
38941;DHT22;43236;47.208;7.518;2023-04-24T12:28:19;18.00;78.80
38941;DHT22;43236;47.208;7.518;2023-04-24T12:31:07;17.60;79.20
38941;DHT22;43236;47.208;7.518;2023-04-24T12:33:54;19.60;81.50
38941;DHT22;43236;47.208;7.518;2023-04-24T12:42:15;18.00;79.00
38941;DHT22;43236;47.208;7.518;2023-04-24T12:45:13;19.10;81.90
38941;DHT22;43236;47.208;7.518;2023-04-24T12:48:00;17.60;80.80
38941;DHT22;43236;47.208;7.518;2023-04-24T12:50:48;19.20;83.10
38941;DHT22;43236;47.208;7.518;2023-04-24T12:53:35;17.10;81.20
38941;DHT22;43236;47.208;7.518;2023-04-24T12:56:22;16.60;79.60
38941;DHT22;43236;47.208;7.518;2023-04-24T12:59:10;17.10;80.30
38941;DHT22;43236;47.208;7.518;2023-04-24T13:04:46;17.90;77.80
38941;DHT22;43236;47.208;7.518;2023-04-24T13:07:33;17.60;79.20
38941;DHT22;43236;47.208;7.518;2023-04-24T13:10:20;19.00;76.00
38941;DHT22;43236;47.208;7.518;2023-04-24T13:13:07;18.70;73.90
38941;DHT22;43236;47.208;7.518;2023-04-24T13:15:54;17.60;74.20
38941;DHT22;43236;47.208;7.518;2023-04-24T13:18:42;17.50;76.50
38941;DHT22;43236;47.208;7.518;2023-04-24T13:21:30;18.40;78.20
38941;DHT22;43236;47.208;7.518;2023-04-24T13:27:04;17.80;78.90
38941;DHT22;43236;47.208;7.518;2023-04-24T13:29:51;17.40;78.20
38941;DHT22;43236;47.208;7.518;2023-04-24T13:32:38;19.70;82.00
38941;DHT22;43236;47.208;7.518;2023-04-24T13:35:25;17.40;80.80
38941;DHT22;43236;47.208;7.518;2023-04-24T13:38:13;19.60;82.60
38941;DHT22;43236;47.208;7.518;2023-04-24T13:41:00;19.60;80.80
38941;DHT22;43236;47.208;7.518;2023-04-24T13:43:47;18.50;80.20
38941;DHT22;43236;47.208;7.518;2023-04-24T13:46:34;16.90;75.60
38941;DHT22;43236;47.208;7.518;2023-04-24T13:49:21;19.00;79.50
38941;DHT22;43236;47.208;7.518;2023-04-24T13:52:10;18.80;80.00
38941;DHT22;43236;47.208;7.518;2023-04-24T13:54:58;18.00;78.20
38941;DHT22;43236;47.208;7.518;2023-04-24T13:57:45;17.30;75.70
38941;DHT22;43236;47.208;7.518;2023-04-24T14:00:32;18.40;77.10
38941;DHT22;43236;47.208;7.518;2023-04-24T14:03:19;17.40;76.10
38941;DHT22;43236;47.208;7.518;2023-04-24T14:06:06;17.80;78.20
38941;DHT22;43236;47.208;7.518;2023-04-24T14:11:41;19.00;79.30
38941;DHT22;43236;47.208;7.518;2023-04-24T14:14:28;19.30;78.50
38941;DHT22;43236;47.208;7.518;2023-04-24T14:17:15;17.10;77.20
38941;DHT22;43236;47.208;7.518;2023-04-24T14:20:02;18.90;81.90
38941;DHT22;43236;47.208;7.518;2023-04-24T14:22:49;18.00;79.40
38941;DHT22;43236;47.208;7.518;2023-04-24T14:25:36;17.40;78.40
38941;DHT22;43236;47.208;7.518;2023-04-24T14:28:25;19.30;80.30
38941;DHT22;43236;47.208;7.518;2023-04-24T14:31:12;17.90;76.80
38941;DHT22;43236;47.208;7.518;2023-04-24T14:33:59;19.30;78.90
38941;DHT22;43236;47.208;7.518;2023-04-24T14:36:46;19.00;79.00
38941;DHT22;43236;47.208;7.518;2023-04-24T14:39:33;18.50;79.70
38941;DHT22;43236;47.208;7.518;2023-04-24T14:42:19;19.00;79.50
38941;DHT22;43236;47.208;7.518;2023-04-24T14:45:10;17.00;77.70
38941;DHT22;43236;47.208;7.518;2023-04-24T14:47:57;16.70;78.60
38941;DHT22;43236;47.208;7.518;2023-04-24T14:50:44;17.40;77.80
38941;DHT22;43236;47.208;7.518;2023-04-24T14:53:31;19.00;80.20
38941;DHT22;43236;47.208;7.518;2023-04-24T14:56:18;18.00;77.90
38941;DHT22;43236;47.208;7.518;2023-04-24T14:59:05;19.40;80.60
38941;DHT22;43236;47.208;7.518;2023-04-24T15:01:53;17.10;76.30
38941;DHT22;43236;47.208;7.518;2023-04-24T15:04:43;18.00;79.70
38941;DHT22;43236;47.208;7.518;2023-04-24T15:07:30;19.40;80.40
38941;DHT22;43236;47.208;7.518;2023-04-24T15:10:17;17.80;78.80
38941;DHT22;43236;47.208;7.518;2023-04-24T15:13:04;18.00;81.20
38941;DHT22;43236;47.208;7.518;2023-04-24T15:15:51;18.20;80.50
38941;DHT22;43236;47.208;7.518;2023-04-24T15:18:39;17.90;76.60
38941;DHT22;43236;47.208;7.518;2023-04-24T15:21:26;18.30;77.00
38941;DHT22;43236;47.208;7.518;2023-04-24T15:24:13;18.30;75.40
38941;DHT22;43236;47.208;7.518;2023-04-24T15:27:00;19.30;74.80
38941;DHT22;43236;47.208;7.518;2023-04-24T15:29:47;18.10;74.20
38941;DHT22;43236;47.208;7.518;2023-04-24T15:32:33;18.50;75.50
38941;DHT22;43236;47.208;7.518;2023-04-24T15:35:22;17.50;74.50
38941;DHT22;43236;47.208;7.518;2023-04-24T15:38:09;17.50;75.80
38941;DHT22;43236;47.208;7.518;2023-04-24T15:40:56;17.50;76.50
38941;DHT22;43236;47.208;7.518;2023-04-24T15:43:43;16.70;74.60
38941;DHT22;43236;47.208;7.518;2023-04-24T15:46:30;17.70;74.80
38941;DHT22;43236;47.208;7.518;2023-04-24T15:49:16;18.00;73.50
38941;DHT22;43236;47.208;7.518;2023-04-24T15:52:05;19.50;74.40
38941;DHT22;43236;47.208;7.518;2023-04-24T15:54:52;17.70;72.50
38941;DHT22;43236;47.208;7.518;2023-04-24T15:57:39;17.60;72.80
38941;DHT22;43236;47.208;7.518;2023-04-24T16:00:26;18.20;73.40
38941;DHT22;43236;47.208;7.518;2023-04-24T16:03:18;17.60;73.60
38941;DHT22;43236;47.208;7.518;2023-04-24T16:06:05;18.80;73.90
38941;DHT22;43236;47.208;7.518;2023-04-24T16:11:41;20.00;73.40
38941;DHT22;43236;47.208;7.518;2023-04-24T16:17:15;17.90;71.20
38941;DHT22;43236;47.208;7.518;2023-04-24T16:20:02;19.80;72.60
38941;DHT22;43236;47.208;7.518;2023-04-24T16:22:49;18.60;74.40
38941;DHT22;43236;47.208;7.518;2023-04-24T16:25:36;17.80;76.50
38941;DHT22;43236;47.208;7.518;2023-04-24T16:28:24;17.80;74.80
38941;DHT22;43236;47.208;7.518;2023-04-24T16:31:12;17.90;74.00
38941;DHT22;43236;47.208;7.518;2023-04-24T16:33:59;17.00;74.20
38941;DHT22;43236;47.208;7.518;2023-04-24T16:36:46;16.90;74.50
38941;DHT22;43236;47.208;7.518;2023-04-24T16:39:33;19.20;77.50
38941;DHT22;43236;47.208;7.518;2023-04-24T16:42:20;17.10;72.80
38941;DHT22;43236;47.208;7.518;2023-04-24T16:45:08;17.40;73.30
38941;DHT22;43236;47.208;7.518;2023-04-24T16:47:55;17.00;72.00
38941;DHT22;43236;47.208;7.518;2023-04-24T16:50:42;16.40;71.10
38941;DHT22;43236;47.208;7.518;2023-04-24T16:53:30;17.40;72.10
38941;DHT22;43236;47.208;7.518;2023-04-24T16:56:17;17.40;72.10
38941;DHT22;43236;47.208;7.518;2023-04-24T16:59:04;19.10;74.90
38941;DHT22;43236;47.208;7.518;2023-04-24T17:01:52;18.00;74.20
38941;DHT22;43236;47.208;7.518;2023-04-24T17:04:39;17.10;74.20
38941;DHT22;43236;47.208;7.518;2023-04-24T17:07:26;18.90;77.30
38941;DHT22;43236;47.208;7.518;2023-04-24T17:10:13;17.80;76.40
38941;DHT22;43236;47.208;7.518;2023-04-24T17:13:00;16.40;75.20
38941;DHT22;43236;47.208;7.518;2023-04-24T17:15:47;18.20;78.10
38941;DHT22;43236;47.208;7.518;2023-04-24T17:18:35;16.70;75.20
38941;DHT22;43236;47.208;7.518;2023-04-24T17:21:22;18.50;77.10
38941;DHT22;43236;47.208;7.518;2023-04-24T17:24:09;18.60;77.90
38941;DHT22;43236;47.208;7.518;2023-04-24T17:26:56;17.90;77.50
38941;DHT22;43236;47.208;7.518;2023-04-24T17:29:44;18.30;76.50
38941;DHT22;43236;47.208;7.518;2023-04-24T17:32:31;18.50;78.30
38941;DHT22;43236;47.208;7.518;2023-04-24T17:35:20;16.50;75.30
38941;DHT22;43236;47.208;7.518;2023-04-24T17:38:06;15.50;74.20
38941;DHT22;43236;47.208;7.518;2023-04-24T17:43:41;15.60;74.00
38941;DHT22;43236;47.208;7.518;2023-04-24T17:46:29;16.40;74.80
38941;DHT22;43236;47.208;7.518;2023-04-24T17:49:16;18.50;75.10
38941;DHT22;43236;47.208;7.518;2023-04-24T17:52:04;15.90;74.30
38941;DHT22;43236;47.208;7.518;2023-04-24T17:54:51;15.70;74.40
38941;DHT22;43236;47.208;7.518;2023-04-24T18:00:25;16.90;76.60
38941;DHT22;43236;47.208;7.518;2023-04-24T18:03:12;13.40;74.90
38941;DHT22;43236;47.208;7.518;2023-04-24T18:05:59;14.60;75.20
38941;DHT22;43236;47.208;7.518;2023-04-24T18:08:48;14.40;75.60
38941;DHT22;43236;47.208;7.518;2023-04-24T18:11:34;15.90;78.20
38941;DHT22;43236;47.208;7.518;2023-04-24T18:14:22;14.50;77.50
38941;DHT22;43236;47.208;7.518;2023-04-24T18:17:10;14.10;78.00
38941;DHT22;43236;47.208;7.518;2023-04-24T18:19:57;14.20;78.60
38941;DHT22;43236;47.208;7.518;2023-04-24T18:22:44;14.20;78.70
38941;DHT22;43236;47.208;7.518;2023-04-24T18:25:33;12.50;77.30
38941;DHT22;43236;47.208;7.518;2023-04-24T18:28:20;13.40;76.60
38941;DHT22;43236;47.208;7.518;2023-04-24T18:31:06;13.60;77.00
38941;DHT22;43236;47.208;7.518;2023-04-24T18:33:53;12.60;76.20
38941;DHT22;43236;47.208;7.518;2023-04-24T18:36:40;12.60;76.40
38941;DHT22;43236;47.208;7.518;2023-04-24T18:45:03;13.50;77.10
38941;DHT22;43236;47.208;7.518;2023-04-24T18:47:50;13.40;76.90
38941;DHT22;43236;47.208;7.518;2023-04-24T18:50:37;14.00;77.70
38941;DHT22;43236;47.208;7.518;2023-04-24T18:53:25;12.50;76.30
38941;DHT22;43236;47.208;7.518;2023-04-24T18:56:12;13.60;76.30
38941;DHT22;43236;47.208;7.518;2023-04-24T18:58:59;13.60;77.10
38941;DHT22;43236;47.208;7.518;2023-04-24T19:01:47;13.10;77.10
38941;DHT22;43236;47.208;7.518;2023-04-24T19:04:34;12.60;76.60
38941;DHT22;43236;47.208;7.518;2023-04-24T19:07:21;12.50;77.70
38941;DHT22;43236;47.208;7.518;2023-04-24T19:10:08;12.70;77.40